Terminal Aerodrome Forecast
Issued by NWS Tiyan, Guam

Home | Current Version | Previous Version | Text Only | Print | Product List | Glossary On
Versions: 1 2 3 4 5 6 7 8 9 10 11 12 13
000
FTPQ31 PGUM 220537
TAFGUM
TAF
PGUM 220537Z 2206/2312 07014G20KT P6SM FEW025 SCT050
     FM220800 07011KT P6SM FEW025 FEW050
     FM222300 07014G20KT P6SM FEW025 SCT050=

USA.gov is the U.S. government's official web portal to all federal, state and local government web resources and services.